AirNav   Air Wisconsin pilot careers
 
 1459 users online  

KLYO Lyons-Rice County Municipal Airport
Lyons, Kansas, USA


FAA INFORMATION EFFECTIVE 07 DECEMBER 2017

Location

FAA Identifier: LYO
Lat/Long: 38-20-31.0775N / 098-13-37.7207W
38-20.517958N / 098-13.628678W
38.3419660 / -98.2271446
(estimated)
Elevation: 1691.8 ft. / 515.7 m (surveyed)
Variation: 06E (2000)
From city: 1 mile W of LYONS, KS
Time zone: UTC -6 (UTC -5 during Daylight Saving Time)
Zip code: 67554

Airport Operations

Airport use: Open to the public
Activation date: 12/1944
Control tower: no
ARTCC: KANSAS CITY CENTER
FSS: WICHITA FLIGHT SERVICE STATION
NOTAMs facility: ICT (NOTAM-D service available)
Attendance: MON-FRI 0800-1700
FOR ATTENDANCE OTR TIMES ON REQ CALL 620-257-5002.
Wind indicator: lighted
Segmented circle: no
Lights: ACTVT MIRL RY 17R/35L - CTAF.
Beacon: white-green (lighted land airport)
Operates sunset to sunrise.

Airport Communications

CTAF/UNICOM: 122.8
  • APCH/DEP SVC PRVDD BY KANSAS CITY ARTCC ON FREQS 118.8/322.42 (HUTCHINSON RCAG).

Nearby radio navigation aids

VOR radial/distance  VOR name  Freq  Var
HUTr322/24.9HUTCHINSON VOR/DME116.8004E

Airport Services

Parking: hangars and tiedowns
Airframe service: MINOR
Powerplant service: MINOR
Bottled oxygen: NONE
Bulk oxygen: NONE

Runway Information

Runway 17R/35L

Dimensions: 4401 x 75 ft. / 1341 x 23 m
Surface: concrete, in excellent condition
Weight bearing capacity: 
PCN 12 /R/C/W/T
Single wheel: 30.0
Runway edge lights: medium intensity
RUNWAY 17R  RUNWAY 35L
Latitude: 38-20.777525N38-20.052613N
Longitude: 098-13.717742W098-13.709773W
Elevation: 1691.8 ft.1672.4 ft.
Gradient: 0.4%0.4%
Traffic pattern: rightleft
Runway heading: 174 magnetic, 180 true354 magnetic, 360 true
Markings: nonprecision, in good conditionnonprecision, in good condition
Touchdown point: yes, no lightsyes, no lights
Obstructions: 17 ft. road, 565 ft. from runway, 21:1 slope to clear30 ft. trees, 1300 ft. from runway, 195 ft. left of centerline, 36:1 slope to clear

Runway 17L/35R

Dimensions: 2529 x 150 ft. / 771 x 46 m
Surface: turf, in good condition
RUNWAY 17L  RUNWAY 35R
Latitude: 38-20.850000N38-20.433333N
Longitude: 098-13.500000W098-13.500000W
Elevation: 1691.0 ft.1680.0 ft.
Traffic pattern: leftright
Runway heading: 174 magnetic, 180 true354 magnetic, 000 true
Displaced threshold: 300 ft.no
Touchdown point: yes, no lightsyes, no lights
Obstructions: 16 ft. road, 50 ft. from runway, 21:1 slope to clear
APCH RATIO 21:1 TO DSPLCD THLD MKD BY LINE CONES PERPENDICULAR TO RY.
none

Runway 14/32

Dimensions: 1709 x 100 ft. / 521 x 30 m
Surface: turf, in good condition
RUNWAY 14  RUNWAY 32
Latitude: 38-20.716667N38-20.483333N
Longitude: 098-13.700000W098-13.500000W
Elevation: 1690.0 ft.1680.0 ft.
Gradient: 3.4%3.4%
Traffic pattern: leftleft
Runway heading: 140 magnetic, 146 true320 magnetic, 326 true
Touchdown point: yes, no lightsyes, no lights
Obstructions: 35 ft. ant, 700 ft. from runway, 50 ft. right of centerline, 20:1 slope to clear30 ft. trees, 1300 ft. from runway, 43:1 slope to clear

Airport Ownership and Management from official FAA records

Ownership: Publicly-owned
Owner: CITY OF LYONS AND RICE CO
1458 W HWY 56
LYONS, KS 67554
Phone 620-257-5002
Manager: TRACY HILLEGEIST
1458 W HWY 56
LYONS, KS 67554
Phone 620-257-5002
MANAGERS CELL PHONE 785-577-1918

Airport Operational Statistics

Aircraft based on the field: 11
Single engine airplanes: 11
    
Aircraft operations: avg 33/day *
58% transient general aviation
42% local general aviation
* for 12-month period ending 29 August 2017

Instrument Procedures

NOTE: All procedures below are presented as PDF files. If you need a reader for these files, you should download the free Adobe Reader.

NOT FOR NAVIGATION. Please procure official charts for flight.
FAA instrument procedures published for use between 7 December 2017 at 0901Z and 4 January 2018 at 0900Z.

 
IAPs - Instrument Approach Procedures
RNAV (GPS) RWY 17R **CHANGED**   download (173KB)
RNAV (GPS) RWY 35L **CHANGED**   download (193KB)
VOR-A **CHANGED**   download (162KB)
NOTE: Special Take-Off Minimums/Departure Procedures apply   download (188KB)

Other nearby airports with instrument procedures:

KHUT - Hutchinson Regional Airport (24 nm SE)
KMPR - Mc Pherson Airport (25 nm E)
KGBD - Great Bend Municipal Airport (30 nm W)
47K - Moundridge Municipal Airport (35 nm E)
KSLN - Salina Regional Airport (38 nm NE)
 
Loc | Ops | Rwys | IFR | FBO | Links
Com | Nav | Svcs | Stats | Notes

Kansas City Aviation Department
 
Area around KLYO (Lyons-Rice County Municipal Airport)
 
Road maps at: MapQuest Bing Google
 
Aerial photo
WARNING: Photo may not be current or correct
Aerial photo of KLYO (Lyons-Rice County Municipal Airport)
Photo by Von Rothenberger
Photo taken 05-Sep-2010
looking west.

Do you have a better or more recent aerial photo of Lyons-Rice County Municipal Airport that you would like to share? If so, please send us your photo.

 
Sectional chart

 
Airport distance calculator
Flying to Lyons-Rice County Municipal Airport? Find the distance to fly.

From to KLYO

Sunrise and sunset
Times for 18-Dec-2017
 Local
(UTC-6)
 Zulu
(UTC)
Morning civil twilight07:1613:16
Sunrise07:4613:46
Sunset17:1323:13
Evening civil twilight17:4323:43

Current date and time
Zulu (UTC)  18-Dec-2017 16:55:33
Local (UTC-6)  18-Dec-2017 10:55:33
 
METAR
KHUT 
24nm SE 
181552Z 00000KT 10SM CLR 03/M01 A3008 RMK AO2 SLP190 T00281006
KGBD 
30nm W 
181556Z AUTO 21004KT 10SM CLR 02/M02 A3007 RMK AO2 SLP199 T00221022 FZRANO
KSLN 
38nm NE 
181604Z 24008KT 10SM CLR 05/00 A3009 RMK AO2 T00500000
KRSL 
42nm NW 
181553Z AUTO 23010KT 10SM CLR M01/M02 A3005 RMK AO2 SLP194 T10061022
KPTT 
46nm SW 
181635Z AUTO 21010KT 10SM CLR 08/00 A3007 RMK AO2 T00790000
TAF
KHUT 
24nm SE 
181120Z 1812/1912 24004KT P6SM SKC FM181800 22012KT P6SM SKC FM190000 21006KT P6SM SKC
NOTAMs
Click for the latest NOTAMs
NOTAMs are issued by the DoD/FAA and will open in a separate window not controlled by AirNav.

 

 
 

Would you like to see your business listed on this page?

 If your business provides an interesting product or service to pilots, flight crews, aircraft, or users of the Lyons-Rice County Municipal Airport, you should consider listing it here.  To start the listing process, click on the button below
 
Add a business
 

Other Pages about Lyons-Rice County Municipal Airport

Update a link
 
Copyright © AirNav, LLC. All rights reserved. Privacy Policy  Contact